Search for the current weather situation

Metar

Metar
TNCB 212355Z AUTO 09016KT 9999 // NCD 27/23 Q1011 RE//
Decoded Metar

TAF

TAF
TNCB 212355Z AUTO 09016KT 9999 // NCD 27/23 Q1011 RE//
Decoded TAF
Top